Austin (LCRA Redbud)'s Hourly Summary for Tuesday, July 10, 2018
Hour Temp
(f)
RH
(%)
Solar Rad.
(MJ/m2)
Rainfall
(in)
Wind
(mph)
7/10/2018 12:00 AM 72 96 0 0 0.02
7/10/2018 1:00 AM 72 99 0 0 0
7/10/2018 2:00 AM 71 99 0 0 0
7/10/2018 3:00 AM 71 100 0 0 0
7/10/2018 4:00 AM 71 100 0 0 0
7/10/2018 5:00 AM 0 0 0 0 0
7/10/2018 6:00 AM 72 100 0 0 0
7/10/2018 7:00 AM 72 100 0.01 0 0
7/10/2018 8:00 AM 75 100 0.18 0 0
7/10/2018 9:00 AM 79 87 0.68 0 0.85
7/10/2018 10:00 AM 83 72 1.51 0 1.71
7/10/2018 11:00 AM 85 65 2.04 0 0.48
7/10/2018 12:00 PM 87 55 2.73 0 1.62
7/10/2018 1:00 PM 89 52 3.06 0 1.8
7/10/2018 2:00 PM 89 50 3.14 0 1.87
7/10/2018 3:00 PM 91 47 2.9 0 1.93
7/10/2018 4:00 PM 91 45 2.78 0 2.6
7/10/2018 5:00 PM 92 42 2.3 0 3.17
7/10/2018 6:00 PM 92 41 1.78 0 2.01
7/10/2018 7:00 PM 91 43 1.06 0 1.8
7/10/2018 8:00 PM 90 49 0.2 0 1.13
7/10/2018 9:00 PM 87 59 0.03 0 0.83
7/10/2018 10:00 PM 83 62 0 0 0.22
7/10/2018 11:00 PM 83 66 0 0 2
Data Summary 78 67 24.40 0.00 1.00